createdAt,value
2022-11-20T00:02:33.765Z,54.90
2022-11-20T00:07:35.672Z,48.60
2022-11-20T00:12:41.195Z,57.40
2022-11-20T00:17:43.079Z,63.50
2022-11-20T00:22:44.971Z,70.10
2022-11-20T00:27:46.786Z,68.00
2022-11-20T00:32:48.641Z,72.00
2022-11-20T00:37:50.505Z,66.20
2022-11-20T00:42:52.395Z,67.20
2022-11-20T00:47:58.427Z,57.00
2022-11-20T00:53:00.230Z,61.50
2022-11-20T00:58:04.499Z,59.60
2022-11-20T01:03:06.672Z,55.20
2022-11-20T01:08:08.624Z,49.90
2022-11-20T01:13:29.311Z,53.20
2022-11-20T01:18:31.205Z,53.00
2022-11-20T01:23:37.886Z,52.70
2022-11-20T01:28:41.497Z,58.90
2022-11-20T01:33:44.105Z,54.00
2022-11-20T01:38:46.506Z,57.80
2022-11-20T01:43:48.380Z,57.40
2022-11-20T01:49:22.884Z,51.40
2022-11-20T01:54:34.924Z,47.70
2022-11-20T01:59:42.151Z,49.70
2022-11-20T02:04:44.944Z,43.50
2022-11-20T02:09:46.754Z,44.50
2022-11-20T02:14:48.599Z,46.40
2022-11-20T02:19:50.484Z,50.00
2022-11-20T02:24:52.501Z,42.20
2022-11-20T02:30:04.260Z,39.60
2022-11-20T02:35:10.565Z,47.00
2022-11-20T02:40:12.419Z,43.30
2022-11-20T02:45:14.595Z,39.60
2022-11-20T02:50:17.494Z,45.00
2022-11-20T02:55:19.440Z,47.50
2022-11-20T03:00:21.478Z,49.10
2022-11-20T03:05:23.334Z,41.10
2022-11-20T03:10:25.170Z,53.80
2022-11-20T03:15:27.257Z,50.90
2022-11-20T03:20:29.246Z,51.90
2022-11-20T03:25:31.331Z,48.80
2022-11-20T03:30:33.523Z,51.70
2022-11-20T03:35:35.345Z,44.80
2022-11-20T03:40:37.265Z,51.50
2022-11-20T03:45:39.095Z,35.70
2022-11-20T03:50:40.936Z,45.00
2022-11-20T03:55:43.349Z,55.70
2022-11-20T04:00:45.437Z,49.40
2022-11-20T04:05:47.287Z,61.60
2022-11-20T04:10:49.173Z,65.80
2022-11-20T04:15:50.970Z,59.70
2022-11-20T04:20:52.813Z,51.90
2022-11-20T04:25:54.788Z,60.90
2022-11-20T04:31:06.399Z,66.50
2022-11-20T04:36:12.921Z,62.20
2022-11-20T04:41:18.231Z,57.20
2022-11-20T04:46:21.313Z,56.20
2022-11-20T04:51:23.280Z,61.60
2022-11-20T04:56:25.107Z,58.20
2022-11-20T05:01:27.031Z,59.40
2022-11-20T05:06:29.727Z,53.80
2022-11-20T05:11:33.219Z,59.40
2022-11-20T05:16:36.420Z,50.80
2022-11-20T05:21:38.263Z,49.10
2022-11-20T05:26:40.091Z,56.60
2022-11-20T05:31:42.751Z,69.00
2022-11-20T05:36:44.567Z,46.80
2022-11-20T05:41:46.391Z,65.90
2022-11-20T05:46:48.251Z,66.90
2022-11-20T05:51:50.041Z,63.40
2022-11-20T05:56:51.969Z,51.70
2022-11-20T06:01:53.824Z,58.00
2022-11-20T06:06:55.749Z,57.40
2022-11-20T06:11:57.687Z,60.60
2022-11-20T06:16:59.690Z,58.90
2022-11-20T06:22:01.511Z,47.40
2022-11-20T06:27:03.403Z,62.40
2022-11-20T06:32:05.322Z,62.40
2022-11-20T06:37:10.030Z,53.30
2022-11-20T06:42:11.935Z,48.00
2022-11-20T06:47:13.753Z,50.00
2022-11-20T06:52:15.583Z,58.10
2022-11-20T06:57:17.447Z,54.70
2022-11-20T07:02:19.257Z,53.80
2022-11-20T07:07:21.072Z,55.80
2022-11-20T07:12:22.957Z,43.20
2022-11-20T07:17:24.759Z,48.50
2022-11-20T07:22:26.560Z,49.00
2022-11-20T07:27:29.045Z,53.30
2022-11-20T07:32:31.017Z,54.40
2022-11-20T07:37:36.054Z,48.20
2022-11-20T07:42:37.883Z,52.40
2022-11-20T07:47:39.718Z,47.40
2022-11-20T07:52:42.114Z,45.10
2022-11-20T07:57:43.992Z,43.20
2022-11-20T08:02:45.787Z,54.30
2022-11-20T08:07:47.998Z,63.90
2022-11-20T08:13:12.863Z,61.20
2022-11-20T08:18:30.613Z,63.70
2022-11-20T08:23:33.902Z,48.80
2022-11-20T08:28:35.829Z,50.50
2022-11-20T08:33:37.739Z,43.30
2022-11-20T08:38:39.651Z,46.50
2022-11-20T08:43:41.532Z,46.30
2022-11-20T08:48:43.830Z,41.70
2022-11-20T08:53:49.598Z,49.20
2022-11-20T08:59:18.292Z,42.10
2022-11-20T09:04:15.500Z,38.30
2022-11-20T09:09:19.029Z,39.30
2022-11-20T09:14:22.456Z,37.40
2022-11-20T09:19:35.769Z,39.20
2022-11-20T09:24:38.585Z,46.60
2022-11-20T09:29:40.433Z,44.20
2022-11-20T09:34:43.290Z,45.40
2022-11-20T09:39:45.095Z,42.80
2022-11-20T09:45:10.294Z,38.50
2022-11-20T09:50:42.078Z,36.90
2022-11-20T09:55:44.053Z,36.10
2022-11-20T10:00:47.103Z,32.50
2022-11-20T10:05:54.203Z,29.30
2022-11-20T10:11:08.297Z,33.90
2022-11-20T10:17:01.587Z,31.50
2022-11-20T10:22:18.810Z,31.00
2022-11-20T10:27:29.745Z,32.90
2022-11-20T10:32:38.546Z,27.90
2022-11-20T10:37:45.660Z,28.60
2022-11-20T10:43:02.316Z,28.70
2022-11-20T10:48:18.250Z,31.00
2022-11-20T10:53:38.660Z,24.50
2022-11-20T10:59:24.344Z,26.00
2022-11-20T11:04:46.457Z,28.70
2022-11-20T11:09:54.732Z,27.40
2022-11-20T11:14:58.656Z,29.10
2022-11-20T11:20:24.863Z,23.00
2022-11-20T11:25:37.950Z,24.20
2022-11-20T11:30:45.046Z,21.50
2022-11-20T11:35:51.732Z,19.60
2022-11-20T11:40:57.457Z,21.30
2022-11-20T11:46:00.251Z,17.00
2022-11-20T11:51:02.192Z,19.10
2022-11-20T11:56:11.884Z,16.80
2022-11-20T12:01:32.972Z,19.00
2022-11-20T12:06:40.325Z,17.10
2022-11-20T12:11:53.867Z,17.60
2022-11-20T12:16:58.617Z,17.30
2022-11-20T12:22:36.819Z,17.40
2022-11-20T12:27:53.894Z,16.10
2022-11-20T12:33:30.344Z,16.70
2022-11-20T12:38:53.589Z,13.40
2022-11-20T12:44:32.287Z,13.30
2022-11-20T12:49:50.189Z,12.00
2022-11-20T12:55:15.950Z,13.70
2022-11-20T13:00:22.005Z,12.40
2022-11-20T13:06:01.834Z,13.80
2022-11-20T13:11:16.058Z,13.30
2022-11-20T13:16:30.997Z,11.50
2022-11-20T13:21:41.994Z,11.30
2022-11-20T13:26:43.816Z,12.80
2022-11-20T13:31:48.302Z,10.50
2022-11-20T13:36:53.131Z,8.70
2022-11-20T13:41:58.061Z,7.10
2022-11-20T13:47:00.167Z,8.10
2022-11-20T13:52:20.900Z,8.50
2022-11-20T13:57:40.176Z,8.40
2022-11-20T14:02:43.630Z,8.30
2022-11-20T14:07:46.259Z,10.30
2022-11-20T14:12:48.996Z,9.50
2022-11-20T14:17:50.867Z,10.60
2022-11-20T14:22:54.347Z,10.80
2022-11-20T14:27:58.785Z,11.50
2022-11-20T14:33:04.482Z,14.20
2022-11-20T14:38:14.053Z,12.30
2022-11-20T14:43:23.507Z,12.90
2022-11-20T14:48:31.834Z,12.10
2022-11-20T14:53:33.682Z,13.30
2022-11-20T14:58:35.538Z,12.90
2022-11-20T15:03:40.202Z,13.10
2022-11-20T15:08:52.450Z,13.40
2022-11-20T15:13:54.344Z,12.60
2022-11-20T15:18:56.565Z,13.10
2022-11-20T15:23:58.477Z,12.60
2022-11-20T15:29:00.540Z,13.80
2022-11-20T15:34:02.333Z,14.20
2022-11-20T15:39:04.163Z,12.40
2022-11-20T15:44:06.533Z,12.20
2022-11-20T15:49:13.344Z,11.60
2022-11-20T15:54:21.920Z,12.00
2022-11-20T15:59:24.028Z,11.70
2022-11-20T16:04:26.223Z,11.90
2022-11-20T16:09:28.253Z,12.40
2022-11-20T16:14:48.808Z,12.60
2022-11-20T16:19:50.636Z,11.90
2022-11-20T16:24:52.762Z,10.90
2022-11-20T16:29:54.581Z,13.50
2022-11-20T16:34:56.425Z,11.70
2022-11-20T16:39:58.294Z,12.50
2022-11-20T16:45:00.127Z,12.20
2022-11-20T16:50:06.334Z,12.00
2022-11-20T16:55:08.469Z,13.60
2022-11-20T17:00:10.728Z,12.90
2022-11-20T17:05:12.514Z,14.70
2022-11-20T17:10:14.407Z,14.20
2022-11-20T17:15:16.279Z,14.00
2022-11-20T17:20:18.102Z,14.00
2022-11-20T17:25:19.925Z,14.10
2022-11-20T17:30:21.760Z,15.10
2022-11-20T17:35:23.557Z,13.80
2022-11-20T17:40:27.556Z,14.50
2022-11-20T17:45:29.840Z,15.40
2022-11-20T17:50:31.710Z,15.70
2022-11-20T17:55:55.859Z,15.60
2022-11-20T18:01:06.103Z,16.20
2022-11-20T18:06:28.932Z,15.90
2022-11-20T18:11:34.118Z,18.10
2022-11-20T18:16:39.736Z,17.90
2022-11-20T18:21:42.130Z,15.60
2022-11-20T18:26:44.774Z,15.60
2022-11-20T18:31:46.714Z,15.10
2022-11-20T18:36:49.543Z,15.00
2022-11-20T18:42:10.644Z,15.20
2022-11-20T18:47:16.211Z,15.10
2022-11-20T18:52:44.930Z,14.70
2022-11-20T18:57:46.944Z,13.70
2022-11-20T19:02:48.847Z,14.40
2022-11-20T19:07:50.782Z,12.50
2022-11-20T19:12:52.666Z,13.90
2022-11-20T19:17:55.428Z,14.30
2022-11-20T19:22:57.234Z,13.40
2022-11-20T19:27:59.754Z,15.70
2022-11-20T19:33:01.601Z,14.60
2022-11-20T19:38:05.614Z,12.00
2022-11-20T19:43:07.632Z,14.00
2022-11-20T19:48:09.484Z,13.30
2022-11-20T19:53:11.789Z,13.00
2022-11-20T19:58:13.640Z,12.60
2022-11-20T20:03:15.536Z,11.00
2022-11-20T20:08:17.365Z,12.10
2022-11-20T20:13:19.185Z,12.50
2022-11-20T20:18:21.022Z,16.20
2022-11-20T20:23:22.875Z,14.90
2022-11-20T20:28:24.710Z,14.60
2022-11-20T20:33:26.515Z,14.90
2022-11-20T20:38:28.374Z,15.20
2022-11-20T20:43:31.541Z,15.50
2022-11-20T20:48:33.383Z,17.10
2022-11-20T20:53:35.178Z,16.70
2022-11-20T20:58:37.097Z,16.00
2022-11-20T21:03:39.279Z,16.10
2022-11-20T21:08:44.119Z,19.00
2022-11-20T21:13:48.237Z,18.70
2022-11-20T21:18:50.783Z,19.20
2022-11-20T21:23:53.701Z,19.80
2022-11-20T21:28:57.137Z,19.60
2022-11-20T21:33:59.155Z,22.30
2022-11-20T21:39:01.045Z,17.50
2022-11-20T21:49:28.350Z,18.80
2022-11-20T21:54:31.428Z,22.70
2022-11-20T21:59:33.237Z,21.60
2022-11-20T22:04:35.055Z,21.80
2022-11-20T22:09:38.838Z,22.50
2022-11-20T22:14:44.612Z,22.30
2022-11-20T22:19:46.485Z,22.90
2022-11-20T22:24:48.333Z,22.30
2022-11-20T22:29:50.193Z,23.00
2022-11-20T22:34:52.081Z,20.70
2022-11-20T22:39:53.889Z,20.90
2022-11-20T22:44:55.730Z,21.30
2022-11-20T22:49:57.594Z,18.70
2022-11-20T22:54:59.441Z,20.30
2022-11-20T23:00:01.320Z,19.00
2022-11-20T23:05:03.177Z,19.10
2022-11-20T23:10:06.757Z,19.30
2022-11-20T23:15:09.447Z,21.10
2022-11-20T23:20:11.575Z,19.80
2022-11-20T23:25:13.391Z,20.10
2022-11-20T23:30:15.553Z,19.80
2022-11-20T23:35:17.370Z,19.50
2022-11-20T23:40:19.202Z,19.00
2022-11-20T23:45:21.042Z,20.80
2022-11-20T23:50:22.928Z,26.10
2022-11-20T23:55:24.811Z,25.00
